createdAt,value
2023-07-03T00:02:28.611Z,13.97
2023-07-03T00:04:58.560Z,13.98
2023-07-03T00:07:29.716Z,14.00
2023-07-03T00:09:59.324Z,14.01
2023-07-03T00:12:28.810Z,13.96
2023-07-03T00:14:58.293Z,13.94
2023-07-03T00:17:28.003Z,13.91
2023-07-03T00:19:57.738Z,13.83
2023-07-03T00:22:28.964Z,13.85
2023-07-03T00:24:58.490Z,13.69
2023-07-03T00:27:28.099Z,13.65
2023-07-03T00:29:57.510Z,13.76
2023-07-03T00:32:29.528Z,13.64
2023-07-03T00:34:59.209Z,13.46
2023-07-03T00:37:30.400Z,13.49
2023-07-03T00:39:59.882Z,13.61
2023-07-03T00:42:31.632Z,13.63
2023-07-03T00:45:01.364Z,13.77
2023-07-03T00:48:45.651Z,13.72
2023-07-03T00:51:17.204Z,13.79
2023-07-03T00:53:47.455Z,13.82
2023-07-03T00:56:17.060Z,13.80
2023-07-03T00:58:46.493Z,13.84
2023-07-03T01:01:26.165Z,13.84
2023-07-03T01:04:04.823Z,13.89
2023-07-03T01:06:42.301Z,13.96
2023-07-03T01:09:15.064Z,13.90
2023-07-03T01:11:46.868Z,13.93
2023-07-03T01:14:19.644Z,13.94
2023-07-03T01:16:52.102Z,13.93
2023-07-03T01:19:31.121Z,13.95
2023-07-03T01:22:10.116Z,14.01
2023-07-03T01:24:45.723Z,14.06
2023-07-03T01:27:19.778Z,14.05
2023-07-03T01:29:53.109Z,13.98
2023-07-03T01:32:26.220Z,13.85
2023-07-03T01:34:58.296Z,13.79
2023-07-03T01:37:30.311Z,13.85
2023-07-03T01:40:03.285Z,13.86
2023-07-03T01:42:37.413Z,13.88
2023-07-03T01:45:12.281Z,13.86
2023-07-03T01:47:41.843Z,13.79
2023-07-03T01:50:15.941Z,13.69
2023-07-03T01:52:52.772Z,13.67
2023-07-03T01:55:34.397Z,13.64
2023-07-03T01:58:09.835Z,13.57
2023-07-03T02:00:45.973Z,13.50
2023-07-03T02:03:25.915Z,13.46
2023-07-03T02:05:59.527Z,13.49
2023-07-03T02:08:30.725Z,13.52
2023-07-03T02:11:01.672Z,13.51
2023-07-03T02:13:31.201Z,13.52
2023-07-03T02:16:00.689Z,13.50
2023-07-03T02:18:30.249Z,13.52
2023-07-03T02:20:59.741Z,13.52
2023-07-03T02:23:29.335Z,13.53
2023-07-03T02:26:00.164Z,13.49
2023-07-03T02:28:29.624Z,13.44
2023-07-03T02:30:59.249Z,13.40
2023-07-03T02:34:07.301Z,13.40
2023-07-03T02:36:37.859Z,13.35
2023-07-03T02:39:08.525Z,13.28
2023-07-03T02:41:39.859Z,13.27
2023-07-03T02:44:09.334Z,13.28
2023-07-03T02:46:39.101Z,13.25
2023-07-03T02:49:08.621Z,13.23
2023-07-03T02:51:38.254Z,13.22
2023-07-03T02:54:08.471Z,13.19
2023-07-03T02:56:39.725Z,13.19
2023-07-03T02:59:09.244Z,13.09
2023-07-03T03:01:38.869Z,13.06
2023-07-03T03:04:08.416Z,13.06
2023-07-03T03:06:38.822Z,13.14
2023-07-03T03:09:10.525Z,13.15
2023-07-03T03:11:41.661Z,13.12
2023-07-03T03:14:11.284Z,13.14
2023-07-03T03:16:41.021Z,13.17
2023-07-03T03:19:10.555Z,13.20
2023-07-03T03:21:40.761Z,13.20
2023-07-03T03:24:10.791Z,13.20
2023-07-03T03:26:41.644Z,13.23
2023-07-03T03:29:11.190Z,13.25
2023-07-03T03:31:40.848Z,13.27
2023-07-03T03:34:10.380Z,13.27
2023-07-03T03:36:40.230Z,13.29
2023-07-03T03:39:09.876Z,13.32
2023-07-03T03:41:40.868Z,13.35
2023-07-03T03:44:10.606Z,13.37
2023-07-03T03:49:45.682Z,13.40
2023-07-03T03:52:15.488Z,13.44
2023-07-03T03:54:45.290Z,13.51
2023-07-03T03:57:15.192Z,13.57
2023-07-03T03:59:45.188Z,13.61
2023-07-03T04:02:15.208Z,13.68
2023-07-03T04:04:46.544Z,13.77
2023-07-03T04:07:16.344Z,13.86
2023-07-03T04:09:46.020Z,13.99
2023-07-03T04:12:16.171Z,14.08
2023-07-03T04:14:45.833Z,14.22
2023-07-03T04:17:15.477Z,14.36
2023-07-03T04:19:46.451Z,14.53
2023-07-03T04:22:16.122Z,14.73
2023-07-03T04:24:45.643Z,14.92
2023-07-03T04:27:16.122Z,15.12
2023-07-03T04:29:45.871Z,15.30
2023-07-03T04:32:15.445Z,15.45
2023-07-03T04:34:46.507Z,15.63
2023-07-03T04:37:16.437Z,15.79
2023-07-03T04:39:46.080Z,15.95
2023-07-03T04:42:15.852Z,16.13
2023-07-03T04:44:45.554Z,16.29
2023-07-03T04:47:15.181Z,16.46
2023-07-03T04:49:46.724Z,16.65
2023-07-03T04:52:17.859Z,16.84
2023-07-03T04:54:47.501Z,17.02
2023-07-03T04:57:17.099Z,17.22
2023-07-03T04:59:46.543Z,17.42
2023-07-03T05:02:18.862Z,17.65
2023-07-03T05:04:49.482Z,17.92
2023-07-03T05:07:22.055Z,18.20
2023-07-03T05:09:51.647Z,18.48
2023-07-03T05:12:21.118Z,18.72
2023-07-03T05:14:50.667Z,18.94
2023-07-03T05:17:20.482Z,19.15
2023-07-03T05:19:53.122Z,19.32
2023-07-03T05:22:23.343Z,19.49
2023-07-03T05:24:53.072Z,19.68
2023-07-03T05:27:22.482Z,19.88
2023-07-03T05:29:52.169Z,20.03
2023-07-03T05:32:21.732Z,20.19
2023-07-03T05:34:52.729Z,20.27
2023-07-03T05:37:22.304Z,20.37
2023-07-03T05:39:52.118Z,20.45
2023-07-03T05:42:22.566Z,20.56
2023-07-03T05:44:52.327Z,20.68
2023-07-03T05:47:21.980Z,20.84
2023-07-03T05:49:54.505Z,20.99
2023-07-03T05:52:24.108Z,21.13
2023-07-03T05:54:53.643Z,21.26
2023-07-03T05:57:24.409Z,21.40
2023-07-03T05:59:55.929Z,21.54
2023-07-03T06:02:25.447Z,21.65
2023-07-03T06:04:56.425Z,21.77
2023-07-03T06:07:26.139Z,21.79
2023-07-03T06:09:55.677Z,21.90
2023-07-03T06:12:26.845Z,22.03
2023-07-03T06:14:56.319Z,22.16
2023-07-03T06:17:25.921Z,22.26
2023-07-03T06:19:57.720Z,22.36
2023-07-03T06:22:28.146Z,22.39
2023-07-03T06:24:57.704Z,22.40
2023-07-03T06:27:27.573Z,22.50
2023-07-03T06:29:57.087Z,22.58
2023-07-03T06:32:26.680Z,22.72
2023-07-03T06:34:58.415Z,22.83
2023-07-03T06:37:27.922Z,22.93
2023-07-03T06:39:57.702Z,23.03
2023-07-03T06:42:27.544Z,23.13
2023-07-03T06:44:57.001Z,23.10
2023-07-03T06:49:45.355Z,23.29
2023-07-03T06:52:14.916Z,23.34
2023-07-03T06:54:44.580Z,23.39
2023-07-03T06:57:14.115Z,23.37
2023-07-03T06:59:43.783Z,23.35
2023-07-03T07:02:13.450Z,23.43
2023-07-03T07:04:45.602Z,23.57
2023-07-03T07:07:15.233Z,23.67
2023-07-03T07:09:44.862Z,23.69
2023-07-03T07:12:14.525Z,23.59
2023-07-03T07:14:44.129Z,23.60
2023-07-03T07:17:13.668Z,23.78
2023-07-03T07:19:44.495Z,23.76
2023-07-03T07:22:14.042Z,23.85
2023-07-03T07:24:46.149Z,23.94
2023-07-03T07:27:15.755Z,24.04
2023-07-03T07:29:45.485Z,24.08
2023-07-03T07:32:15.027Z,24.16
2023-07-03T07:34:46.068Z,24.25
2023-07-03T07:37:17.351Z,24.43
2023-07-03T07:39:46.832Z,24.45
2023-07-03T07:42:16.311Z,24.39
2023-07-03T07:44:45.962Z,24.12
2023-07-03T07:47:15.661Z,23.91
2023-07-03T07:49:46.882Z,23.68
2023-07-03T07:52:17.428Z,23.67
2023-07-03T07:54:47.244Z,23.89
2023-07-03T07:57:18.293Z,24.17
2023-07-03T07:59:47.688Z,24.45
2023-07-03T08:02:17.392Z,24.73
2023-07-03T08:04:48.552Z,24.95
2023-07-03T08:07:18.107Z,25.06
2023-07-03T08:09:47.640Z,25.06
2023-07-03T08:12:17.331Z,25.06
2023-07-03T08:14:47.099Z,25.11
2023-07-03T08:17:16.618Z,25.07
2023-07-03T08:19:47.846Z,25.17
2023-07-03T08:22:17.423Z,25.29
2023-07-03T08:24:47.233Z,25.40
2023-07-03T08:27:16.663Z,25.44
2023-07-03T08:29:46.245Z,25.38
2023-07-03T08:32:16.666Z,25.52
2023-07-03T08:37:20.434Z,25.80
2023-07-03T08:39:50.046Z,25.93
2023-07-03T08:42:26.269Z,26.11
2023-07-03T08:44:55.987Z,26.22
2023-07-03T08:47:30.144Z,26.30
2023-07-03T08:50:05.744Z,26.20
2023-07-03T08:52:42.043Z,26.25
2023-07-03T08:55:19.196Z,26.27
2023-07-03T08:57:48.654Z,26.42
2023-07-03T09:00:19.779Z,26.43
2023-07-03T09:02:57.661Z,26.54
2023-07-03T09:05:48.134Z,26.72
2023-07-03T09:08:34.365Z,26.93
2023-07-03T09:11:05.286Z,27.09
2023-07-03T09:13:40.523Z,27.06
2023-07-03T09:16:18.479Z,27.03
2023-07-03T09:18:52.166Z,27.00
2023-07-03T09:21:24.077Z,27.00
2023-07-03T09:24:00.452Z,26.94
2023-07-03T09:26:39.202Z,27.17
2023-07-03T09:29:09.419Z,27.27
2023-07-03T09:31:39.026Z,27.43
2023-07-03T09:34:10.011Z,27.33
2023-07-03T09:36:45.220Z,27.05
2023-07-03T09:39:21.113Z,26.91
2023-07-03T09:41:50.577Z,26.77
2023-07-03T09:44:22.320Z,26.47
2023-07-03T09:49:45.264Z,26.34
2023-07-03T09:52:18.501Z,26.49
2023-07-03T09:54:51.206Z,26.79
2023-07-03T09:57:29.105Z,27.00
2023-07-03T10:00:16.413Z,27.09
2023-07-03T10:08:01.877Z,26.35
2023-07-03T10:13:16.059Z,25.93
2023-07-03T10:15:46.432Z,25.75
2023-07-03T10:18:22.095Z,25.56
2023-07-03T10:20:54.682Z,25.35
2023-07-03T10:23:29.516Z,25.05
2023-07-03T10:26:06.103Z,24.87
2023-07-03T10:28:40.727Z,24.71
2023-07-03T10:31:17.873Z,24.60
2023-07-03T10:33:51.310Z,24.34
2023-07-03T10:36:28.407Z,24.02
2023-07-03T10:39:07.076Z,23.51
2023-07-03T10:41:45.598Z,23.20
2023-07-03T10:44:20.307Z,23.15
2023-07-03T10:46:56.641Z,23.05
2023-07-03T10:49:31.736Z,22.93
2023-07-03T10:52:15.105Z,22.73
2023-07-03T10:54:54.349Z,22.66
2023-07-03T10:57:35.361Z,22.63
2023-07-03T11:00:13.887Z,22.58
2023-07-03T11:02:55.236Z,22.46
2023-07-03T11:05:31.651Z,22.44
2023-07-03T11:08:12.524Z,22.57
2023-07-03T11:10:54.700Z,22.69
2023-07-03T11:13:30.880Z,23.17
2023-07-03T11:16:11.051Z,23.69
2023-07-03T11:24:31.822Z,24.57
2023-07-03T11:29:42.471Z,24.98
2023-07-03T11:32:14.642Z,25.23
2023-07-03T11:40:38.949Z,25.92
2023-07-03T11:43:31.235Z,26.01
2023-07-03T11:46:12.739Z,26.06
2023-07-03T11:48:50.666Z,26.12
2023-07-03T11:51:34.451Z,26.23
2023-07-03T11:54:20.499Z,26.19
2023-07-03T11:56:55.650Z,26.03
2023-07-03T11:59:34.287Z,25.71
2023-07-03T12:02:44.558Z,25.59
2023-07-03T12:05:29.891Z,25.42
2023-07-03T12:07:59.469Z,25.18
2023-07-03T12:10:48.384Z,24.83
2023-07-03T12:13:38.782Z,24.78
2023-07-03T12:16:13.607Z,24.74
2023-07-03T12:18:43.156Z,24.69
2023-07-03T12:21:13.531Z,24.45
2023-07-03T12:23:49.501Z,24.22
2023-07-03T12:26:20.766Z,24.23
2023-07-03T12:28:51.789Z,24.12
2023-07-03T12:31:24.578Z,24.06
2023-07-03T12:33:58.960Z,24.06
2023-07-03T12:36:35.118Z,23.92
2023-07-03T12:39:15.933Z,23.81
2023-07-03T12:41:45.705Z,23.86
2023-07-03T12:44:16.846Z,23.96
2023-07-03T12:50:00.583Z,24.03
2023-07-03T12:52:33.319Z,24.07
2023-07-03T12:55:14.463Z,24.32
2023-07-03T12:57:46.048Z,24.48
2023-07-03T13:00:28.659Z,24.52
2023-07-03T13:03:01.027Z,24.57
2023-07-03T13:05:35.799Z,24.57
2023-07-03T13:08:12.724Z,24.61
2023-07-03T13:10:42.409Z,24.69
2023-07-03T13:13:20.216Z,24.96
2023-07-03T13:15:49.935Z,25.34
2023-07-03T13:18:24.253Z,25.71
2023-07-03T13:21:00.687Z,26.07
2023-07-03T13:23:32.335Z,26.25
2023-07-03T13:26:04.140Z,26.42
2023-07-03T13:28:36.146Z,26.55
2023-07-03T13:31:13.374Z,26.73
2023-07-03T13:33:44.505Z,26.62
2023-07-03T13:36:28.595Z,26.64
2023-07-03T13:39:12.527Z,26.58
2023-07-03T13:41:44.593Z,26.34
2023-07-03T13:44:16.666Z,26.05
2023-07-03T13:46:48.180Z,25.55
2023-07-03T13:49:18.596Z,25.21
2023-07-03T13:51:52.217Z,24.96
2023-07-03T13:54:22.217Z,24.65
2023-07-03T13:56:51.769Z,24.57
2023-07-03T13:59:21.312Z,24.33
2023-07-03T14:01:51.119Z,24.14
2023-07-03T14:04:20.775Z,23.98
2023-07-03T14:06:51.929Z,23.99
2023-07-03T14:09:21.774Z,23.92
2023-07-03T14:11:51.291Z,23.80
2023-07-03T14:14:21.145Z,23.67
2023-07-03T14:16:50.714Z,23.61
2023-07-03T14:19:20.414Z,23.60
2023-07-03T14:21:51.281Z,23.57
2023-07-03T14:24:20.837Z,23.54
2023-07-03T14:26:50.200Z,23.54
2023-07-03T14:29:20.522Z,23.50
2023-07-03T14:31:50.628Z,23.44
2023-07-03T14:34:20.344Z,23.42
2023-07-03T14:36:52.092Z,23.57
2023-07-03T14:39:21.688Z,23.77
2023-07-03T14:41:51.196Z,23.90
2023-07-03T14:44:20.699Z,24.00
2023-07-03T14:46:50.513Z,24.01
2023-07-03T14:49:20.128Z,24.09
2023-07-03T14:51:51.095Z,24.11
2023-07-03T14:54:20.961Z,24.12
2023-07-03T14:56:50.633Z,24.09
2023-07-03T14:59:20.168Z,24.01
2023-07-03T15:01:49.896Z,24.01
2023-07-03T15:04:19.685Z,24.00
2023-07-03T15:06:50.887Z,23.98
2023-07-03T15:09:20.341Z,23.89
2023-07-03T15:11:51.666Z,23.95
2023-07-03T15:14:21.192Z,23.94
2023-07-03T15:16:50.730Z,23.93
2023-07-03T15:19:20.418Z,24.03
2023-07-03T15:21:51.350Z,23.97
2023-07-03T15:24:21.953Z,23.91
2023-07-03T15:26:51.643Z,23.92
2023-07-03T15:29:21.187Z,23.84
2023-07-03T15:31:50.876Z,23.73
2023-07-03T15:34:20.981Z,23.57
2023-07-03T15:36:52.761Z,23.51
2023-07-03T15:39:24.412Z,23.54
2023-07-03T15:41:54.787Z,23.52
2023-07-03T15:44:24.435Z,23.42
2023-07-03T15:49:44.961Z,23.51
2023-07-03T15:52:14.601Z,23.50
2023-07-03T15:54:44.267Z,23.52
2023-07-03T15:57:14.292Z,23.55
2023-07-03T15:59:43.890Z,23.39
2023-07-03T16:02:13.423Z,23.29
2023-07-03T16:04:45.688Z,23.29
2023-07-03T16:07:15.162Z,23.34
2023-07-03T16:09:44.909Z,23.26
2023-07-03T16:12:15.793Z,23.22
2023-07-03T16:14:48.238Z,23.16
2023-07-03T16:17:17.541Z,23.08
2023-07-03T16:22:35.146Z,22.71
2023-07-03T16:25:04.700Z,22.60
2023-07-03T16:27:34.193Z,22.59
2023-07-03T16:30:04.812Z,22.57
2023-07-03T16:32:34.350Z,22.53
2023-07-03T16:35:05.455Z,22.47
2023-07-03T16:37:35.084Z,22.43
2023-07-03T16:40:05.347Z,22.39
2023-07-03T16:42:34.865Z,22.34
2023-07-03T16:45:04.540Z,22.25
2023-07-03T16:47:34.176Z,22.15
2023-07-03T16:50:05.305Z,22.07
2023-07-03T16:52:34.726Z,22.04
2023-07-03T16:55:04.290Z,22.02
2023-07-03T16:57:33.918Z,21.98
2023-07-03T17:00:03.840Z,21.91
2023-07-03T17:02:33.496Z,21.86
2023-07-03T17:05:04.447Z,21.83
2023-07-03T17:07:34.074Z,21.82
2023-07-03T17:10:03.996Z,21.75
2023-07-03T17:12:33.724Z,21.68
2023-07-03T17:15:03.294Z,21.64
2023-07-03T17:17:32.845Z,21.63
2023-07-03T17:20:04.629Z,21.58
2023-07-03T17:22:34.164Z,21.51
2023-07-03T17:25:04.066Z,21.46
2023-07-03T17:27:33.673Z,21.43
2023-07-03T17:30:03.246Z,21.39
2023-07-03T17:32:32.856Z,21.30
2023-07-03T17:35:04.014Z,21.21
2023-07-03T17:37:33.590Z,21.13
2023-07-03T17:40:03.207Z,21.07
2023-07-03T17:42:32.844Z,20.95
2023-07-03T17:45:02.403Z,20.82
2023-07-03T17:47:31.987Z,20.68
2023-07-03T17:50:01.629Z,20.63
2023-07-03T17:52:32.696Z,20.53
2023-07-03T17:55:02.298Z,20.45
2023-07-03T17:57:31.842Z,20.21
2023-07-03T18:00:01.508Z,20.05
2023-07-03T18:02:31.149Z,19.90
2023-07-03T18:05:00.844Z,19.83
2023-07-03T18:07:31.838Z,19.72
2023-07-03T18:10:03.710Z,19.73
2023-07-03T18:12:33.775Z,19.68
2023-07-03T18:15:03.302Z,19.64
2023-07-03T18:17:35.809Z,19.59
2023-07-03T18:20:05.986Z,19.52
2023-07-03T18:22:37.021Z,19.45
2023-07-03T18:25:07.326Z,19.33
2023-07-03T18:27:36.960Z,19.28
2023-07-03T18:30:08.613Z,19.29
2023-07-03T18:32:38.286Z,19.28
2023-07-03T18:35:09.673Z,19.18
2023-07-03T18:37:40.605Z,19.04
2023-07-03T18:40:11.831Z,19.00
2023-07-03T18:42:41.263Z,18.92
2023-07-03T18:45:11.474Z,18.86
2023-07-03T18:49:44.991Z,18.78
2023-07-03T18:52:14.659Z,18.69
2023-07-03T18:54:45.007Z,18.63
2023-07-03T18:57:14.827Z,18.60
2023-07-03T18:59:44.455Z,18.49
2023-07-03T19:02:15.847Z,18.47
2023-07-03T19:04:47.557Z,18.37
2023-07-03T19:07:17.756Z,18.26
2023-07-03T19:09:47.268Z,18.16
2023-07-03T19:12:18.637Z,18.12
2023-07-03T19:14:48.170Z,18.07
2023-07-03T19:17:17.801Z,17.99
2023-07-03T19:19:48.805Z,17.98
2023-07-03T19:22:18.368Z,18.00
2023-07-03T19:24:48.199Z,17.93
2023-07-03T19:27:18.411Z,17.94
2023-07-03T19:29:47.896Z,17.89
2023-07-03T19:32:17.398Z,17.77
2023-07-03T19:34:48.500Z,17.81
2023-07-03T19:37:18.120Z,17.77
2023-07-03T19:39:47.667Z,17.69
2023-07-03T19:42:17.213Z,17.61
2023-07-03T19:44:46.820Z,17.63
2023-07-03T19:47:16.323Z,17.55
2023-07-03T19:49:46.037Z,17.48
2023-07-03T19:52:22.292Z,17.38
2023-07-03T19:54:53.901Z,17.47
2023-07-03T19:57:23.770Z,17.39
2023-07-03T19:59:55.706Z,17.37
2023-07-03T20:02:25.844Z,17.39
2023-07-03T20:04:56.184Z,17.39
2023-07-03T20:07:27.467Z,17.42
2023-07-03T20:09:56.966Z,17.40
2023-07-03T20:12:26.852Z,17.34
2023-07-03T20:14:56.546Z,17.28
2023-07-03T20:17:26.515Z,17.26
2023-07-03T20:19:56.913Z,17.24
2023-07-03T20:22:28.885Z,17.22
2023-07-03T20:24:58.501Z,17.17
2023-07-03T20:27:29.348Z,17.11
2023-07-03T20:29:59.120Z,16.93
2023-07-03T20:32:28.815Z,16.77
2023-07-03T20:34:58.337Z,16.68
2023-07-03T20:37:29.422Z,16.76
2023-07-03T20:40:01.450Z,16.73
2023-07-03T20:42:31.169Z,16.63
2023-07-03T20:45:02.297Z,16.60
2023-07-03T20:47:32.999Z,16.53
2023-07-03T20:50:03.819Z,16.50
2023-07-03T20:52:36.794Z,16.53
2023-07-03T20:55:24.046Z,16.48
2023-07-03T20:57:53.752Z,16.43
2023-07-03T21:00:23.893Z,16.35
2023-07-03T21:02:54.587Z,16.33
2023-07-03T21:05:24.386Z,16.34
2023-07-03T21:07:55.262Z,16.29
2023-07-03T21:10:24.755Z,16.24
2023-07-03T21:12:54.389Z,16.28
2023-07-03T21:15:23.996Z,16.18
2023-07-03T21:18:01.878Z,16.14
2023-07-03T21:20:31.508Z,16.19
2023-07-03T21:23:03.335Z,16.19
2023-07-03T21:25:36.084Z,16.09
2023-07-03T21:28:05.884Z,16.01
2023-07-03T21:30:35.456Z,16.03
2023-07-03T21:33:05.060Z,15.88
2023-07-03T21:35:34.645Z,15.88
2023-07-03T21:38:05.548Z,15.90
2023-07-03T21:40:35.278Z,16.00
2023-07-03T21:43:04.766Z,16.08
2023-07-03T21:45:34.300Z,16.07
2023-07-03T21:49:44.458Z,15.86
2023-07-03T21:52:13.971Z,15.84
2023-07-03T21:54:43.684Z,15.82
2023-07-03T21:57:13.104Z,15.87
2023-07-03T21:59:42.636Z,15.90
2023-07-03T22:02:12.922Z,15.93
2023-07-03T22:04:44.170Z,15.98
2023-07-03T22:07:14.537Z,16.01
2023-07-03T22:09:44.236Z,16.01
2023-07-03T22:12:14.127Z,16.01
2023-07-03T22:14:43.955Z,15.95
2023-07-03T22:17:13.661Z,15.94
2023-07-03T22:19:44.963Z,15.90
2023-07-03T22:22:14.730Z,15.83
2023-07-03T22:24:45.919Z,15.84
2023-07-03T22:27:15.867Z,15.84
2023-07-03T22:29:45.408Z,15.83
2023-07-03T22:32:14.857Z,15.76
2023-07-03T22:34:45.903Z,15.77
2023-07-03T22:37:15.460Z,15.75
2023-07-03T22:39:46.218Z,15.74
2023-07-03T22:42:17.425Z,15.73
2023-07-03T22:44:48.436Z,15.69
2023-07-03T22:47:17.988Z,15.67
2023-07-03T22:49:49.636Z,15.66
2023-07-03T22:52:19.275Z,15.63
2023-07-03T22:54:50.369Z,15.59
2023-07-03T22:57:19.885Z,15.54
2023-07-03T22:59:50.212Z,15.55
2023-07-03T23:02:23.035Z,15.54
2023-07-03T23:04:54.274Z,15.49
2023-07-03T23:07:23.844Z,15.43
2023-07-03T23:09:53.746Z,15.40
2023-07-03T23:12:23.877Z,15.39
2023-07-03T23:14:53.409Z,15.40
2023-07-03T23:17:30.632Z,15.29
2023-07-03T23:20:04.528Z,15.19
2023-07-03T23:22:33.961Z,15.16
2023-07-03T23:25:03.876Z,15.17
2023-07-03T23:27:33.666Z,15.15
2023-07-03T23:30:06.074Z,15.13
2023-07-03T23:32:36.021Z,15.15
2023-07-03T23:35:08.073Z,15.17
2023-07-03T23:37:37.617Z,15.22
2023-07-03T23:40:10.641Z,15.26
2023-07-03T23:42:40.234Z,15.20
2023-07-03T23:45:10.999Z,15.19
2023-07-03T23:47:40.596Z,15.19
2023-07-03T23:50:14.872Z,15.16
2023-07-03T23:52:47.544Z,15.10
2023-07-03T23:55:17.788Z,15.07
2023-07-03T23:57:47.296Z,15.09
